sensor_id;sensor_type;location;lat;lon;timestamp;P1;durP1;ratioP1;P2;durP2;ratioP2
51746;SDS011;37825;40.088;18.302;2022-08-14T00:00:50;28.38;;;25.58;;
51746;SDS011;37825;40.088;18.302;2022-08-14T00:05:47;28.35;;;25.73;;
51746;SDS011;37825;40.088;18.302;2022-08-14T00:08:15;29.05;;;25.05;;
51746;SDS011;37825;40.088;18.302;2022-08-14T00:10:43;28.30;;;25.33;;
51746;SDS011;37825;40.088;18.302;2022-08-14T00:13:13;29.70;;;26.75;;
51746;SDS011;37825;40.088;18.302;2022-08-14T00:15:42;27.40;;;24.60;;
51746;SDS011;37825;40.088;18.302;2022-08-14T00:18:13;27.15;;;24.25;;
51746;SDS011;37825;40.088;18.302;2022-08-14T00:20:42;25.83;;;23.08;;
51746;SDS011;37825;40.088;18.302;2022-08-14T00:23:12;27.95;;;25.27;;
51746;SDS011;37825;40.088;18.302;2022-08-14T00:25:41;27.63;;;25.00;;
51746;SDS011;37825;40.088;18.302;2022-08-14T00:28:11;25.85;;;23.15;;
51746;SDS011;37825;40.088;18.302;2022-08-14T00:30:40;26.02;;;23.63;;
51746;SDS011;37825;40.088;18.302;2022-08-14T00:33:08;24.50;;;21.63;;
51746;SDS011;37825;40.088;18.302;2022-08-14T00:35:36;24.85;;;22.38;;
51746;SDS011;37825;40.088;18.302;2022-08-14T00:38:05;22.63;;;20.10;;
51746;SDS011;37825;40.088;18.302;2022-08-14T00:40:34;22.92;;;20.45;;
51746;SDS011;37825;40.088;18.302;2022-08-14T00:43:02;23.63;;;21.23;;
51746;SDS011;37825;40.088;18.302;2022-08-14T00:45:30;22.45;;;19.38;;
51746;SDS011;37825;40.088;18.302;2022-08-14T00:47:59;22.25;;;20.15;;
51746;SDS011;37825;40.088;18.302;2022-08-14T00:50:28;21.23;;;19.20;;
51746;SDS011;37825;40.088;18.302;2022-08-14T00:52:58;22.40;;;20.08;;
51746;SDS011;37825;40.088;18.302;2022-08-14T00:55:27;21.80;;;18.90;;
51746;SDS011;37825;40.088;18.302;2022-08-14T00:57:57;20.08;;;18.15;;
51746;SDS011;37825;40.088;18.302;2022-08-14T01:00:44;18.77;;;16.73;;
51746;SDS011;37825;40.088;18.302;2022-08-14T01:03:15;19.03;;;17.00;;
51746;SDS011;37825;40.088;18.302;2022-08-14T01:05:45;16.70;;;15.23;;
51746;SDS011;37825;40.088;18.302;2022-08-14T01:08:19;16.65;;;14.68;;
51746;SDS011;37825;40.088;18.302;2022-08-14T01:10:48;16.65;;;15.18;;
51746;SDS011;37825;40.088;18.302;2022-08-14T01:13:19;13.70;;;12.35;;
51746;SDS011;37825;40.088;18.302;2022-08-14T01:15:49;11.80;;;10.73;;
51746;SDS011;37825;40.088;18.302;2022-08-14T01:18:19;14.07;;;10.98;;
51746;SDS011;37825;40.088;18.302;2022-08-14T01:21:06;11.13;;;10.13;;
51746;SDS011;37825;40.088;18.302;2022-08-14T01:23:39;9.60;;;8.70;;
51746;SDS011;37825;40.088;18.302;2022-08-14T01:26:08;10.10;;;7.97;;
51746;SDS011;37825;40.088;18.302;2022-08-14T01:28:38;8.38;;;7.63;;
51746;SDS011;37825;40.088;18.302;2022-08-14T01:31:10;9.60;;;7.78;;
51746;SDS011;37825;40.088;18.302;2022-08-14T01:33:40;8.93;;;6.72;;
51746;SDS011;37825;40.088;18.302;2022-08-14T01:36:11;7.00;;;6.30;;
51746;SDS011;37825;40.088;18.302;2022-08-14T01:38:40;5.60;;;5.18;;
51746;SDS011;37825;40.088;18.302;2022-08-14T01:41:10;6.13;;;5.53;;
51746;SDS011;37825;40.088;18.302;2022-08-14T01:43:43;5.00;;;4.60;;
51746;SDS011;37825;40.088;18.302;2022-08-14T01:46:11;6.28;;;5.07;;
51746;SDS011;37825;40.088;18.302;2022-08-14T01:48:40;4.50;;;3.60;;
51746;SDS011;37825;40.088;18.302;2022-08-14T01:51:11;7.53;;;4.38;;
51746;SDS011;37825;40.088;18.302;2022-08-14T01:53:41;4.85;;;4.00;;
51746;SDS011;37825;40.088;18.302;2022-08-14T01:56:09;5.97;;;4.15;;
51746;SDS011;37825;40.088;18.302;2022-08-14T01:58:38;4.60;;;4.20;;
51746;SDS011;37825;40.088;18.302;2022-08-14T02:01:06;4.75;;;3.83;;
51746;SDS011;37825;40.088;18.302;2022-08-14T02:03:38;6.70;;;4.35;;
51746;SDS011;37825;40.088;18.302;2022-08-14T02:06:07;4.35;;;3.90;;
51746;SDS011;37825;40.088;18.302;2022-08-14T02:08:35;5.88;;;4.07;;
51746;SDS011;37825;40.088;18.302;2022-08-14T02:11:04;6.20;;;3.58;;
51746;SDS011;37825;40.088;18.302;2022-08-14T02:14:08;5.22;;;3.45;;
51746;SDS011;37825;40.088;18.302;2022-08-14T02:16:44;5.30;;;3.40;;
51746;SDS011;37825;40.088;18.302;2022-08-14T02:19:15;4.45;;;2.92;;
51746;SDS011;37825;40.088;18.302;2022-08-14T02:21:45;4.40;;;3.97;;
51746;SDS011;37825;40.088;18.302;2022-08-14T02:24:16;6.35;;;3.65;;
51746;SDS011;37825;40.088;18.302;2022-08-14T02:29:17;5.40;;;3.58;;
51746;SDS011;37825;40.088;18.302;2022-08-14T02:31:49;4.63;;;3.28;;
51746;SDS011;37825;40.088;18.302;2022-08-14T02:34:19;4.00;;;3.33;;
51746;SDS011;37825;40.088;18.302;2022-08-14T02:36:50;8.38;;;3.92;;
51746;SDS011;37825;40.088;18.302;2022-08-14T02:39:19;6.50;;;3.75;;
51746;SDS011;37825;40.088;18.302;2022-08-14T02:41:48;4.57;;;3.47;;
51746;SDS011;37825;40.088;18.302;2022-08-14T02:44:19;5.43;;;3.72;;
51746;SDS011;37825;40.088;18.302;2022-08-14T02:46:50;4.38;;;3.90;;
51746;SDS011;37825;40.088;18.302;2022-08-14T02:49:19;4.55;;;3.60;;
51746;SDS011;37825;40.088;18.302;2022-08-14T02:51:52;9.07;;;3.85;;
51746;SDS011;37825;40.088;18.302;2022-08-14T02:54:22;4.47;;;3.33;;
51746;SDS011;37825;40.088;18.302;2022-08-14T02:56:51;3.85;;;3.40;;
51746;SDS011;37825;40.088;18.302;2022-08-14T02:59:22;6.05;;;4.43;;
51746;SDS011;37825;40.088;18.302;2022-08-14T03:01:51;4.78;;;3.40;;
51746;SDS011;37825;40.088;18.302;2022-08-14T03:04:20;6.10;;;3.95;;
51746;SDS011;37825;40.088;18.302;2022-08-14T03:06:48;6.78;;;4.43;;
51746;SDS011;37825;40.088;18.302;2022-08-14T03:09:17;4.65;;;3.75;;
51746;SDS011;37825;40.088;18.302;2022-08-14T03:11:46;7.63;;;4.57;;
51746;SDS011;37825;40.088;18.302;2022-08-14T03:14:14;4.32;;;3.92;;
51746;SDS011;37825;40.088;18.302;2022-08-14T03:16:42;6.47;;;4.45;;
51746;SDS011;37825;40.088;18.302;2022-08-14T03:19:11;5.00;;;4.25;;
51746;SDS011;37825;40.088;18.302;2022-08-14T03:21:40;4.40;;;4.00;;
51746;SDS011;37825;40.088;18.302;2022-08-14T03:24:09;5.20;;;4.75;;
51746;SDS011;37825;40.088;18.302;2022-08-14T03:26:39;5.00;;;4.50;;
51746;SDS011;37825;40.088;18.302;2022-08-14T03:29:09;5.63;;;5.13;;
51746;SDS011;37825;40.088;18.302;2022-08-14T03:31:38;6.22;;;4.38;;
51746;SDS011;37825;40.088;18.302;2022-08-14T03:34:07;8.88;;;4.60;;
51746;SDS011;37825;40.088;18.302;2022-08-14T03:36:37;11.50;;;5.45;;
51746;SDS011;37825;40.088;18.302;2022-08-14T03:39:10;5.68;;;5.18;;
51746;SDS011;37825;40.088;18.302;2022-08-14T03:41:42;6.72;;;5.13;;
51746;SDS011;37825;40.088;18.302;2022-08-14T03:44:11;6.40;;;5.80;;
51746;SDS011;37825;40.088;18.302;2022-08-14T03:46:39;10.73;;;6.40;;
51746;SDS011;37825;40.088;18.302;2022-08-14T03:49:09;6.30;;;5.63;;
51746;SDS011;37825;40.088;18.302;2022-08-14T03:51:37;8.45;;;7.40;;
51746;SDS011;37825;40.088;18.302;2022-08-14T03:54:06;8.00;;;6.95;;
51746;SDS011;37825;40.088;18.302;2022-08-14T03:56:34;10.05;;;7.53;;
51746;SDS011;37825;40.088;18.302;2022-08-14T03:59:05;7.93;;;7.20;;
51746;SDS011;37825;40.088;18.302;2022-08-14T04:01:38;11.75;;;8.40;;
51746;SDS011;37825;40.088;18.302;2022-08-14T04:04:07;7.72;;;7.00;;
51746;SDS011;37825;40.088;18.302;2022-08-14T04:06:36;10.43;;;7.13;;
51746;SDS011;37825;40.088;18.302;2022-08-14T04:09:06;8.93;;;7.25;;
51746;SDS011;37825;40.088;18.302;2022-08-14T04:11:35;8.10;;;7.07;;
51746;SDS011;37825;40.088;18.302;2022-08-14T04:14:04;11.88;;;7.70;;
51746;SDS011;37825;40.088;18.302;2022-08-14T04:16:33;9.18;;;7.05;;
51746;SDS011;37825;40.088;18.302;2022-08-14T04:19:01;10.65;;;7.45;;
51746;SDS011;37825;40.088;18.302;2022-08-14T04:21:30;7.45;;;6.75;;
51746;SDS011;37825;40.088;18.302;2022-08-14T04:23:59;7.75;;;6.85;;
51746;SDS011;37825;40.088;18.302;2022-08-14T04:26:28;7.10;;;6.40;;
51746;SDS011;37825;40.088;18.302;2022-08-14T04:28:57;8.13;;;7.32;;
51746;SDS011;37825;40.088;18.302;2022-08-14T04:31:27;8.98;;;6.85;;
51746;SDS011;37825;40.088;18.302;2022-08-14T04:33:55;7.13;;;6.47;;
51746;SDS011;37825;40.088;18.302;2022-08-14T04:36:24;6.50;;;5.80;;
51746;SDS011;37825;40.088;18.302;2022-08-14T04:38:52;8.27;;;6.60;;
51746;SDS011;37825;40.088;18.302;2022-08-14T04:41:39;7.57;;;6.47;;
51746;SDS011;37825;40.088;18.302;2022-08-14T04:44:27;7.70;;;6.57;;
51746;SDS011;37825;40.088;18.302;2022-08-14T04:46:56;9.25;;;6.40;;
51746;SDS011;37825;40.088;18.302;2022-08-14T04:49:43;10.27;;;6.15;;
51746;SDS011;37825;40.088;18.302;2022-08-14T04:52:13;9.27;;;6.20;;
51746;SDS011;37825;40.088;18.302;2022-08-14T04:54:41;10.38;;;6.03;;
51746;SDS011;37825;40.088;18.302;2022-08-14T04:57:10;9.15;;;6.13;;
51746;SDS011;37825;40.088;18.302;2022-08-14T04:59:40;7.22;;;6.25;;
51746;SDS011;37825;40.088;18.302;2022-08-14T05:02:10;6.75;;;5.65;;
51746;SDS011;37825;40.088;18.302;2022-08-14T05:04:39;8.38;;;5.35;;
51746;SDS011;37825;40.088;18.302;2022-08-14T05:07:08;6.10;;;5.43;;
51746;SDS011;37825;40.088;18.302;2022-08-14T05:09:36;8.20;;;5.35;;
51746;SDS011;37825;40.088;18.302;2022-08-14T05:12:04;6.88;;;5.30;;
51746;SDS011;37825;40.088;18.302;2022-08-14T05:14:34;8.20;;;5.15;;
51746;SDS011;37825;40.088;18.302;2022-08-14T05:17:02;7.88;;;4.93;;
51746;SDS011;37825;40.088;18.302;2022-08-14T05:19:30;6.18;;;4.20;;
51746;SDS011;37825;40.088;18.302;2022-08-14T05:21:59;5.97;;;4.55;;
51746;SDS011;37825;40.088;18.302;2022-08-14T05:24:28;5.22;;;4.30;;
51746;SDS011;37825;40.088;18.302;2022-08-14T05:26:57;4.38;;;3.85;;
51746;SDS011;37825;40.088;18.302;2022-08-14T05:29:25;5.35;;;4.43;;
51746;SDS011;37825;40.088;18.302;2022-08-14T05:31:54;4.05;;;3.65;;
51746;SDS011;37825;40.088;18.302;2022-08-14T05:34:23;4.15;;;3.75;;
51746;SDS011;37825;40.088;18.302;2022-08-14T05:36:56;5.22;;;3.95;;
51746;SDS011;37825;40.088;18.302;2022-08-14T05:39:25;5.13;;;3.97;;
51746;SDS011;37825;40.088;18.302;2022-08-14T05:41:53;7.75;;;4.07;;
51746;SDS011;37825;40.088;18.302;2022-08-14T05:44:22;3.40;;;3.10;;
51746;SDS011;37825;40.088;18.302;2022-08-14T05:46:53;4.05;;;3.45;;
51746;SDS011;37825;40.088;18.302;2022-08-14T05:49:36;5.40;;;3.65;;
51746;SDS011;37825;40.088;18.302;2022-08-14T05:52:04;4.13;;;3.35;;
51746;SDS011;37825;40.088;18.302;2022-08-14T05:54:33;4.68;;;4.28;;
51746;SDS011;37825;40.088;18.302;2022-08-14T05:57:02;3.22;;;2.88;;
51746;SDS011;37825;40.088;18.302;2022-08-14T05:59:31;6.57;;;3.10;;
51746;SDS011;37825;40.088;18.302;2022-08-14T06:01:59;4.43;;;3.45;;
51746;SDS011;37825;40.088;18.302;2022-08-14T06:04:28;7.00;;;2.95;;
51746;SDS011;37825;40.088;18.302;2022-08-14T06:06:56;2.60;;;2.40;;
51746;SDS011;37825;40.088;18.302;2022-08-14T06:09:25;3.33;;;3.03;;
51746;SDS011;37825;40.088;18.302;2022-08-14T06:11:53;3.97;;;3.00;;
51746;SDS011;37825;40.088;18.302;2022-08-14T06:14:21;4.18;;;3.47;;
51746;SDS011;37825;40.088;18.302;2022-08-14T06:16:51;3.42;;;3.13;;
51746;SDS011;37825;40.088;18.302;2022-08-14T06:19:20;4.78;;;2.60;;
51746;SDS011;37825;40.088;18.302;2022-08-14T06:21:48;5.28;;;2.75;;
51746;SDS011;37825;40.088;18.302;2022-08-14T06:24:19;3.85;;;2.67;;
51746;SDS011;37825;40.088;18.302;2022-08-14T06:26:47;4.50;;;3.05;;
51746;SDS011;37825;40.088;18.302;2022-08-14T06:29:16;2.92;;;2.60;;
51746;SDS011;37825;40.088;18.302;2022-08-14T06:31:44;3.78;;;2.63;;
51746;SDS011;37825;40.088;18.302;2022-08-14T06:34:13;7.53;;;3.22;;
51746;SDS011;37825;40.088;18.302;2022-08-14T06:36:42;4.40;;;2.30;;
51746;SDS011;37825;40.088;18.302;2022-08-14T06:39:11;4.18;;;2.55;;
51746;SDS011;37825;40.088;18.302;2022-08-14T06:41:40;3.53;;;2.08;;
51746;SDS011;37825;40.088;18.302;2022-08-14T06:44:08;4.68;;;3.05;;
51746;SDS011;37825;40.088;18.302;2022-08-14T06:46:36;4.88;;;2.95;;
51746;SDS011;37825;40.088;18.302;2022-08-14T06:49:05;5.55;;;2.67;;
51746;SDS011;37825;40.088;18.302;2022-08-14T06:51:33;4.38;;;2.72;;
51746;SDS011;37825;40.088;18.302;2022-08-14T06:56:32;6.20;;;2.40;;
51746;SDS011;37825;40.088;18.302;2022-08-14T06:59:01;5.63;;;2.70;;
51746;SDS011;37825;40.088;18.302;2022-08-14T07:01:30;4.63;;;2.40;;
51746;SDS011;37825;40.088;18.302;2022-08-14T07:04:17;5.82;;;2.50;;
51746;SDS011;37825;40.088;18.302;2022-08-14T07:07:04;6.93;;;2.97;;
51746;SDS011;37825;40.088;18.302;2022-08-14T07:09:33;3.83;;;2.65;;
51746;SDS011;37825;40.088;18.302;2022-08-14T07:12:01;5.15;;;2.92;;
51746;SDS011;37825;40.088;18.302;2022-08-14T07:14:29;4.50;;;2.42;;
51746;SDS011;37825;40.088;18.302;2022-08-14T07:16:57;4.20;;;2.40;;
51746;SDS011;37825;40.088;18.302;2022-08-14T07:19:26;3.00;;;2.25;;
51746;SDS011;37825;40.088;18.302;2022-08-14T07:21:55;3.08;;;2.65;;
51746;SDS011;37825;40.088;18.302;2022-08-14T07:24:24;6.65;;;2.35;;
51746;SDS011;37825;40.088;18.302;2022-08-14T07:26:52;7.70;;;3.00;;
51746;SDS011;37825;40.088;18.302;2022-08-14T07:29:20;3.78;;;1.98;;
51746;SDS011;37825;40.088;18.302;2022-08-14T07:34:19;4.07;;;2.05;;
51746;SDS011;37825;40.088;18.302;2022-08-14T07:36:47;3.13;;;1.95;;
51746;SDS011;37825;40.088;18.302;2022-08-14T07:39:16;3.35;;;2.22;;
51746;SDS011;37825;40.088;18.302;2022-08-14T07:41:44;4.03;;;2.10;;
51746;SDS011;37825;40.088;18.302;2022-08-14T07:44:12;9.02;;;2.22;;
51746;SDS011;37825;40.088;18.302;2022-08-14T07:46:40;3.85;;;2.08;;
51746;SDS011;37825;40.088;18.302;2022-08-14T07:49:08;2.95;;;2.15;;
51746;SDS011;37825;40.088;18.302;2022-08-14T07:51:38;3.55;;;1.80;;
51746;SDS011;37825;40.088;18.302;2022-08-14T07:54:06;5.15;;;2.15;;
51746;SDS011;37825;40.088;18.302;2022-08-14T07:56:34;6.13;;;2.00;;
51746;SDS011;37825;40.088;18.302;2022-08-14T07:59:03;4.03;;;1.88;;
51746;SDS011;37825;40.088;18.302;2022-08-14T08:01:32;2.40;;;1.42;;
51746;SDS011;37825;40.088;18.302;2022-08-14T08:04:01;1.77;;;1.02;;
51746;SDS011;37825;40.088;18.302;2022-08-14T08:06:30;3.30;;;1.48;;
51746;SDS011;37825;40.088;18.302;2022-08-14T08:08:59;1.25;;;1.10;;
51746;SDS011;37825;40.088;18.302;2022-08-14T08:11:31;1.48;;;1.10;;
51746;SDS011;37825;40.088;18.302;2022-08-14T08:14:00;2.50;;;1.23;;
51746;SDS011;37825;40.088;18.302;2022-08-14T08:16:33;1.58;;;0.80;;
51746;SDS011;37825;40.088;18.302;2022-08-14T08:19:03;1.98;;;1.20;;
51746;SDS011;37825;40.088;18.302;2022-08-14T08:21:37;4.32;;;1.58;;
51746;SDS011;37825;40.088;18.302;2022-08-14T08:24:06;4.88;;;1.92;;
51746;SDS011;37825;40.088;18.302;2022-08-14T08:26:34;1.65;;;1.20;;
51746;SDS011;37825;40.088;18.302;2022-08-14T08:29:03;1.80;;;1.08;;
51746;SDS011;37825;40.088;18.302;2022-08-14T08:31:32;1.77;;;1.00;;
51746;SDS011;37825;40.088;18.302;2022-08-14T08:34:05;3.57;;;1.27;;
51746;SDS011;37825;40.088;18.302;2022-08-14T08:36:40;2.10;;;0.98;;
51746;SDS011;37825;40.088;18.302;2022-08-14T08:39:09;1.83;;;0.93;;
51746;SDS011;37825;40.088;18.302;2022-08-14T08:41:44;2.88;;;1.50;;
51746;SDS011;37825;40.088;18.302;2022-08-14T08:44:13;1.63;;;1.20;;
51746;SDS011;37825;40.088;18.302;2022-08-14T08:46:43;3.58;;;1.17;;
51746;SDS011;37825;40.088;18.302;2022-08-14T08:49:11;2.92;;;1.40;;
51746;SDS011;37825;40.088;18.302;2022-08-14T08:51:40;4.47;;;1.50;;
51746;SDS011;37825;40.088;18.302;2022-08-14T08:54:09;3.40;;;1.33;;
51746;SDS011;37825;40.088;18.302;2022-08-14T08:56:42;2.20;;;1.38;;
51746;SDS011;37825;40.088;18.302;2022-08-14T08:59:21;2.20;;;1.48;;
51746;SDS011;37825;40.088;18.302;2022-08-14T09:01:54;3.38;;;1.65;;
51746;SDS011;37825;40.088;18.302;2022-08-14T09:04:25;4.63;;;1.58;;
51746;SDS011;37825;40.088;18.302;2022-08-14T09:06:55;2.13;;;1.40;;
51746;SDS011;37825;40.088;18.302;2022-08-14T09:09:24;4.93;;;1.70;;
51746;SDS011;37825;40.088;18.302;2022-08-14T09:11:54;3.87;;;1.73;;
51746;SDS011;37825;40.088;18.302;2022-08-14T09:14:23;2.10;;;1.50;;
51746;SDS011;37825;40.088;18.302;2022-08-14T09:16:52;5.32;;;1.50;;
51746;SDS011;37825;40.088;18.302;2022-08-14T09:19:20;5.85;;;1.42;;
51746;SDS011;37825;40.088;18.302;2022-08-14T09:21:49;2.53;;;1.40;;
51746;SDS011;37825;40.088;18.302;2022-08-14T09:24:20;3.83;;;1.47;;
51746;SDS011;37825;40.088;18.302;2022-08-14T09:26:48;2.30;;;1.25;;
51746;SDS011;37825;40.088;18.302;2022-08-14T09:29:18;2.38;;;1.40;;
51746;SDS011;37825;40.088;18.302;2022-08-14T09:31:47;2.45;;;1.20;;
51746;SDS011;37825;40.088;18.302;2022-08-14T09:36:49;4.35;;;1.52;;
51746;SDS011;37825;40.088;18.302;2022-08-14T09:47:00;2.85;;;1.13;;
51746;SDS011;37825;40.088;18.302;2022-08-14T09:49:33;2.38;;;1.60;;
51746;SDS011;37825;40.088;18.302;2022-08-14T09:52:06;2.33;;;1.23;;
51746;SDS011;37825;40.088;18.302;2022-08-14T09:54:37;4.07;;;1.75;;
51746;SDS011;37825;40.088;18.302;2022-08-14T09:57:06;3.63;;;2.23;;
51746;SDS011;37825;40.088;18.302;2022-08-14T09:59:41;2.75;;;1.60;;
51746;SDS011;37825;40.088;18.302;2022-08-14T10:02:19;7.53;;;1.77;;
51746;SDS011;37825;40.088;18.302;2022-08-14T10:05:06;2.28;;;1.60;;
51746;SDS011;37825;40.088;18.302;2022-08-14T10:07:48;3.38;;;1.45;;
51746;SDS011;37825;40.088;18.302;2022-08-14T10:12:59;1.73;;;1.55;;
51746;SDS011;37825;40.088;18.302;2022-08-14T10:15:28;2.15;;;1.45;;
51746;SDS011;37825;40.088;18.302;2022-08-14T10:18:04;2.00;;;1.33;;
51746;SDS011;37825;40.088;18.302;2022-08-14T10:20:57;2.92;;;1.42;;
51746;SDS011;37825;40.088;18.302;2022-08-14T10:23:24;2.70;;;1.25;;
51746;SDS011;37825;40.088;18.302;2022-08-14T10:26:04;4.40;;;1.30;;
51746;SDS011;37825;40.088;18.302;2022-08-14T10:28:52;4.47;;;1.53;;
51746;SDS011;37825;40.088;18.302;2022-08-14T10:31:25;3.95;;;1.50;;
51746;SDS011;37825;40.088;18.302;2022-08-14T10:33:57;4.72;;;1.30;;
51746;SDS011;37825;40.088;18.302;2022-08-14T10:36:27;3.20;;;1.70;;
51746;SDS011;37825;40.088;18.302;2022-08-14T10:38:59;1.73;;;0.88;;
51746;SDS011;37825;40.088;18.302;2022-08-14T10:41:35;2.75;;;1.10;;
51746;SDS011;37825;40.088;18.302;2022-08-14T10:44:06;5.15;;;1.30;;
51746;SDS011;37825;40.088;18.302;2022-08-14T10:49:41;4.25;;;2.25;;
51746;SDS011;37825;40.088;18.302;2022-08-14T10:52:21;3.75;;;2.08;;
51746;SDS011;37825;40.088;18.302;2022-08-14T10:54:51;4.85;;;1.88;;
51746;SDS011;37825;40.088;18.302;2022-08-14T10:57:23;4.03;;;2.72;;
51746;SDS011;37825;40.088;18.302;2022-08-14T10:59:53;4.25;;;1.90;;
51746;SDS011;37825;40.088;18.302;2022-08-14T11:07:28;3.27;;;1.10;;
51746;SDS011;37825;40.088;18.302;2022-08-14T11:09:58;3.05;;;1.63;;
51746;SDS011;37825;40.088;18.302;2022-08-14T11:12:37;2.90;;;1.17;;
51746;SDS011;37825;40.088;18.302;2022-08-14T11:15:06;1.80;;;1.40;;
51746;SDS011;37825;40.088;18.302;2022-08-14T11:17:34;1.85;;;0.90;;
51746;SDS011;37825;40.088;18.302;2022-08-14T11:20:04;1.77;;;1.15;;
51746;SDS011;37825;40.088;18.302;2022-08-14T11:25:03;1.83;;;1.38;;
51746;SDS011;37825;40.088;18.302;2022-08-14T11:27:32;3.55;;;1.45;;
51746;SDS011;37825;40.088;18.302;2022-08-14T11:30:03;3.20;;;1.58;;
51746;SDS011;37825;40.088;18.302;2022-08-14T11:32:32;3.05;;;1.33;;
51746;SDS011;37825;40.088;18.302;2022-08-14T11:35:02;1.33;;;0.98;;
51746;SDS011;37825;40.088;18.302;2022-08-14T11:37:30;2.42;;;1.10;;
51746;SDS011;37825;40.088;18.302;2022-08-14T11:40:14;1.55;;;1.15;;
51746;SDS011;37825;40.088;18.302;2022-08-14T11:42:44;2.72;;;1.30;;
51746;SDS011;37825;40.088;18.302;2022-08-14T11:45:13;2.72;;;1.77;;
51746;SDS011;37825;40.088;18.302;2022-08-14T11:47:42;1.45;;;1.35;;
51746;SDS011;37825;40.088;18.302;2022-08-14T11:50:15;3.35;;;1.30;;
51746;SDS011;37825;40.088;18.302;2022-08-14T11:52:46;1.38;;;0.82;;
51746;SDS011;37825;40.088;18.302;2022-08-14T11:55:15;2.17;;;1.20;;
51746;SDS011;37825;40.088;18.302;2022-08-14T11:57:46;3.92;;;1.23;;
51746;SDS011;37825;40.088;18.302;2022-08-14T12:00:15;2.95;;;1.10;;
51746;SDS011;37825;40.088;18.302;2022-08-14T12:02:54;2.05;;;1.00;;
51746;SDS011;37825;40.088;18.302;2022-08-14T12:05:41;2.60;;;1.25;;
51746;SDS011;37825;40.088;18.302;2022-08-14T12:08:10;1.95;;;1.17;;
51746;SDS011;37825;40.088;18.302;2022-08-14T12:10:40;2.30;;;1.30;;
51746;SDS011;37825;40.088;18.302;2022-08-14T12:13:13;2.95;;;1.40;;
51746;SDS011;37825;40.088;18.302;2022-08-14T12:15:42;2.85;;;1.27;;
51746;SDS011;37825;40.088;18.302;2022-08-14T12:18:11;0.95;;;0.60;;
51746;SDS011;37825;40.088;18.302;2022-08-14T12:20:41;1.40;;;1.00;;
51746;SDS011;37825;40.088;18.302;2022-08-14T12:23:19;1.45;;;0.70;;
51746;SDS011;37825;40.088;18.302;2022-08-14T12:25:48;1.80;;;0.83;;
51746;SDS011;37825;40.088;18.302;2022-08-14T12:28:18;1.48;;;0.57;;
51746;SDS011;37825;40.088;18.302;2022-08-14T12:30:46;1.35;;;0.60;;
51746;SDS011;37825;40.088;18.302;2022-08-14T12:33:19;2.15;;;0.90;;
51746;SDS011;37825;40.088;18.302;2022-08-14T12:35:48;1.05;;;0.63;;
51746;SDS011;37825;40.088;18.302;2022-08-14T12:38:17;1.30;;;0.60;;
51746;SDS011;37825;40.088;18.302;2022-08-14T12:40:46;2.60;;;1.00;;
51746;SDS011;37825;40.088;18.302;2022-08-14T12:43:15;1.90;;;0.80;;
51746;SDS011;37825;40.088;18.302;2022-08-14T12:45:46;1.10;;;0.57;;
51746;SDS011;37825;40.088;18.302;2022-08-14T12:48:16;1.63;;;0.70;;
51746;SDS011;37825;40.088;18.302;2022-08-14T12:50:46;1.20;;;0.63;;
51746;SDS011;37825;40.088;18.302;2022-08-14T12:53:18;0.70;;;0.60;;
51746;SDS011;37825;40.088;18.302;2022-08-14T12:55:56;1.58;;;0.80;;
51746;SDS011;37825;40.088;18.302;2022-08-14T12:58:27;1.15;;;0.88;;
51746;SDS011;37825;40.088;18.302;2022-08-14T13:00:55;0.95;;;0.70;;
51746;SDS011;37825;40.088;18.302;2022-08-14T13:03:38;2.63;;;0.88;;
51746;SDS011;37825;40.088;18.302;2022-08-14T13:06:08;1.25;;;0.80;;
51746;SDS011;37825;40.088;18.302;2022-08-14T13:08:37;1.20;;;0.85;;
51746;SDS011;37825;40.088;18.302;2022-08-14T13:11:11;1.73;;;1.00;;
51746;SDS011;37825;40.088;18.302;2022-08-14T13:13:41;2.10;;;1.20;;
51746;SDS011;37825;40.088;18.302;2022-08-14T13:16:11;1.20;;;1.05;;
51746;SDS011;37825;40.088;18.302;2022-08-14T13:18:42;2.35;;;1.15;;
51746;SDS011;37825;40.088;18.302;2022-08-14T13:21:13;2.13;;;1.45;;
51746;SDS011;37825;40.088;18.302;2022-08-14T13:23:44;2.83;;;1.13;;
51746;SDS011;37825;40.088;18.302;2022-08-14T13:26:45;1.65;;;0.80;;
51746;SDS011;37825;40.088;18.302;2022-08-14T13:29:14;1.23;;;0.80;;
51746;SDS011;37825;40.088;18.302;2022-08-14T13:31:43;1.30;;;1.20;;
51746;SDS011;37825;40.088;18.302;2022-08-14T13:34:22;3.05;;;0.90;;
51746;SDS011;37825;40.088;18.302;2022-08-14T13:36:51;1.58;;;0.93;;
51746;SDS011;37825;40.088;18.302;2022-08-14T13:39:21;2.42;;;1.02;;
51746;SDS011;37825;40.088;18.302;2022-08-14T13:41:50;3.72;;;1.00;;
51746;SDS011;37825;40.088;18.302;2022-08-14T13:44:18;1.88;;;1.00;;
51746;SDS011;37825;40.088;18.302;2022-08-14T13:46:48;1.10;;;1.00;;
51746;SDS011;37825;40.088;18.302;2022-08-14T13:49:17;1.50;;;0.90;;
51746;SDS011;37825;40.088;18.302;2022-08-14T13:51:46;2.58;;;1.27;;
51746;SDS011;37825;40.088;18.302;2022-08-14T13:54:17;2.38;;;0.90;;
51746;SDS011;37825;40.088;18.302;2022-08-14T13:56:47;1.15;;;1.00;;
51746;SDS011;37825;40.088;18.302;2022-08-14T13:59:15;4.15;;;1.20;;
51746;SDS011;37825;40.088;18.302;2022-08-14T14:01:44;1.73;;;1.08;;
51746;SDS011;37825;40.088;18.302;2022-08-14T14:04:14;1.65;;;0.95;;
51746;SDS011;37825;40.088;18.302;2022-08-14T14:06:47;2.75;;;1.00;;
51746;SDS011;37825;40.088;18.302;2022-08-14T14:09:20;1.75;;;0.93;;
51746;SDS011;37825;40.088;18.302;2022-08-14T14:11:50;1.73;;;0.73;;
51746;SDS011;37825;40.088;18.302;2022-08-14T14:14:22;1.27;;;0.77;;
51746;SDS011;37825;40.088;18.302;2022-08-14T14:16:50;2.40;;;0.90;;
51746;SDS011;37825;40.088;18.302;2022-08-14T14:19:19;1.90;;;1.10;;
51746;SDS011;37825;40.088;18.302;2022-08-14T14:21:51;1.83;;;1.08;;
51746;SDS011;37825;40.088;18.302;2022-08-14T14:24:21;2.83;;;1.30;;
51746;SDS011;37825;40.088;18.302;2022-08-14T14:26:49;1.48;;;1.23;;
51746;SDS011;37825;40.088;18.302;2022-08-14T14:29:18;1.52;;;0.80;;
51746;SDS011;37825;40.088;18.302;2022-08-14T14:31:47;0.63;;;0.60;;
51746;SDS011;37825;40.088;18.302;2022-08-14T14:34:16;1.80;;;1.10;;
51746;SDS011;37825;40.088;18.302;2022-08-14T14:36:44;0.65;;;0.60;;
51746;SDS011;37825;40.088;18.302;2022-08-14T14:39:14;1.02;;;0.93;;
51746;SDS011;37825;40.088;18.302;2022-08-14T14:41:46;0.70;;;0.63;;
51746;SDS011;37825;40.088;18.302;2022-08-14T14:44:18;1.13;;;0.70;;
51746;SDS011;37825;40.088;18.302;2022-08-14T14:46:48;1.13;;;0.88;;
51746;SDS011;37825;40.088;18.302;2022-08-14T14:49:18;0.90;;;0.80;;
51746;SDS011;37825;40.088;18.302;2022-08-14T14:51:46;0.98;;;0.75;;
51746;SDS011;37825;40.088;18.302;2022-08-14T14:54:15;0.70;;;0.40;;
51746;SDS011;37825;40.088;18.302;2022-08-14T14:56:44;1.23;;;0.50;;
51746;SDS011;37825;40.088;18.302;2022-08-14T15:01:46;0.80;;;0.40;;
51746;SDS011;37825;40.088;18.302;2022-08-14T15:04:15;1.35;;;0.50;;
51746;SDS011;37825;40.088;18.302;2022-08-14T15:06:43;0.50;;;0.50;;
51746;SDS011;37825;40.088;18.302;2022-08-14T15:09:12;0.57;;;0.50;;
51746;SDS011;37825;40.088;18.302;2022-08-14T15:11:40;1.13;;;0.52;;
51746;SDS011;37825;40.088;18.302;2022-08-14T15:14:09;1.10;;;0.57;;
51746;SDS011;37825;40.088;18.302;2022-08-14T15:16:37;0.93;;;0.32;;
51746;SDS011;37825;40.088;18.302;2022-08-14T15:19:06;0.90;;;0.60;;
51746;SDS011;37825;40.088;18.302;2022-08-14T15:21:37;1.30;;;0.90;;
51746;SDS011;37825;40.088;18.302;2022-08-14T15:24:06;1.27;;;0.77;;
51746;SDS011;37825;40.088;18.302;2022-08-14T15:26:34;0.40;;;0.30;;